Météo Nord-Pas-de-Calais   La météo au plus près de chez vous

Station météorologique

Observations météo à Dunkerque (59183)

59183001 11 m Dernier relevé à 10:18
17.7°C
Humidité 77 % Vent 22 km/h 1022.2 hPa

Journée consultée

Samedi 5 Septembre 2026

Synthèse de la journée

Périodes de référence en UTC

Température maximale

17.7°C

à 10:18

06h 06h

Température minimale

16.8°C

à 08:24

18h 18h

Rafale maximale

41 km/h

à 04:48

00h 00h

Précipitations

0 mm

Cumul quotidien

06h 06h

Graphiques de la journée

Heure locale Réduire

Données détaillées

Relevés météo

Pas de 6 minutes Afficher les relevés infra-horaires
Relevés météo détaillés à Dunkerque pour le Samedi 5 Septembre 2026
Heure Température °C Point de rosée °C Humidité % Vent moyen (raf.), km/h Précipitations mm Pression hPa
10:18 17.7 °C 13 °C 74 % 21 km/h (28 km/h) 0 mm0 mm 1022.8 hPa
10:12 17.6 °C 12.9 °C 74 % 20 km/h (28 km/h) 0 mm0 mm 1022.8 hPa
10:06 17.6 °C 13.3 °C 76 % 21 km/h (27 km/h) 0 mm0 mm 1022.7 hPa
10:00 17.5 °C 13.2 °C 76 % 22 km/h (28 km/h) 0 mm0 mm 1022.6 hPa
09:54 17.4 °C 13.3 °C 77 % 22 km/h (28 km/h) 0 mm0 mm 1022.6 hPa
09:48 17.4 °C 13.5 °C 78 % 22 km/h (28 km/h) 0 mm0 mm 1022.5 hPa
09:42 17.2 °C 13.1 °C 77 % 21 km/h (28 km/h) 0 mm0 mm 1022.4 hPa
09:36 17.2 °C 13.1 °C 77 % 22 km/h (29 km/h) 0 mm0 mm 1022.4 hPa
09:30 17.2 °C 13.3 °C 78 % 23 km/h (31 km/h) 0 mm0 mm 1022.4 hPa
09:24 17 °C 12.9 °C 77 % 21 km/h (31 km/h) 0 mm0 mm 1022.3 hPa
09:18 17 °C 12.9 °C 77 % 22 km/h (29 km/h) 0 mm0 mm 1022.2 hPa
09:12 17 °C 12.9 °C 77 % 23 km/h (32 km/h) 0 mm0 mm 1022.2 hPa
09:06 17 °C 12.9 °C 77 % 23 km/h (32 km/h) 0 mm0 mm 1022.1 hPa
09:00 17 °C 12.9 °C 77 % 22 km/h (31 km/h) 0 mm0 mm 1022 hPa
08:54 17 °C 12.7 °C 76 % 22 km/h (31 km/h) 0 mm0 mm 1021.9 hPa
08:48 17 °C 12.9 °C 77 % 23 km/h (31 km/h) 0 mm0 mm 1021.9 hPa
08:42 16.9 °C 12.6 °C 76 % 23 km/h (31 km/h) 0 mm0 mm 1021.8 hPa
08:36 17.1 °C 13 °C 77 % 23 km/h (32 km/h) 0 mm0 mm 1021.7 hPa
08:30 16.9 °C 12.6 °C 76 % 23 km/h (31 km/h) 0 mm0 mm 1021.6 hPa
08:24 16.8 °C 12.5 °C 76 % 23 km/h (31 km/h) 0 mm0 mm 1021.6 hPa
08:18 17.1 °C 13.2 °C 78 % 24 km/h (33 km/h) 0 mm0 mm 1021.6 hPa
08:12 16.9 °C 12.4 °C 75 % 26 km/h (34 km/h) 0 mm0 mm 1021.6 hPa
08:06 16.9 °C 12.4 °C 75 % 26 km/h (34 km/h) 0 mm0 mm 1021.6 hPa
08:00 17 °C 12.3 °C 74 % 25 km/h (32 km/h) 0 mm0 mm 1021.4 hPa
07:54 17 °C 12.5 °C 75 % 25 km/h (32 km/h) 0 mm0 mm 1021.4 hPa
07:48 17 °C 12.3 °C 74 % 26 km/h (34 km/h) 0 mm0 mm 1021.2 hPa
07:42 17 °C 12.3 °C 74 % 28 km/h (38 km/h) 0 mm0 mm 1021.2 hPa
07:36 17 °C 12.3 °C 74 % 27 km/h (38 km/h) 0 mm0 mm 1021.2 hPa
07:30 17.1 °C 12.6 °C 75 % 26 km/h (37 km/h) 0 mm0 mm 1021 hPa
07:24 17 °C 12.3 °C 74 % 29 km/h (40 km/h) 0 mm0 mm 1020.9 hPa
07:18 17.2 °C 12.5 °C 74 % 28 km/h (40 km/h) 0 mm0 mm 1020.8 hPa
07:12 17.1 °C 12.4 °C 74 % 29 km/h (39 km/h) 0 mm0 mm 1020.8 hPa
07:06 17.2 °C 12.5 °C 74 % 30 km/h (39 km/h) 0 mm0 mm 1020.6 hPa
07:00 17.2 °C 12.3 °C 73 % 30 km/h (37 km/h) 0 mm0 mm 1020.5 hPa
06:54 17.3 °C 12.6 °C 74 % 29 km/h (37 km/h) 0 mm0 mm 1020.5 hPa
06:48 17.2 °C 12.1 °C 72 % 28 km/h (37 km/h) 0 mm0 mm 1020.5 hPa
06:42 17.3 °C 12.4 °C 73 % 28 km/h (38 km/h) 0 mm0 mm 1020.4 hPa
06:36 17.3 °C 12.2 °C 72 % 27 km/h (38 km/h) 0 mm0 mm 1020.1 hPa
06:30 17.4 °C 12.5 °C 73 % 28 km/h (40 km/h) 0 mm0 mm 1020.2 hPa
06:24 17.3 °C 12 °C 71 % 28 km/h (40 km/h) 0 mm0 mm 1020.1 hPa
06:18 17.4 °C 12.3 °C 72 % 30 km/h (40 km/h) 0 mm0 mm 1020 hPa
06:12 17.4 °C 12.3 °C 72 % 28 km/h (40 km/h) 0 mm0 mm 1020 hPa
06:06 17.4 °C 12.3 °C 72 % 27 km/h (37 km/h) 0 mm0 mm 1020 hPa
06:00 17.4 °C 12.1 °C 71 % 29 km/h (40 km/h) 0 mm0 mm 1019.9 hPa
05:54 17.5 °C 12 °C 70 % 29 km/h (37 km/h) 0 mm0 mm 1019.9 hPa
05:48 17.4 °C 12.1 °C 71 % 28 km/h (37 km/h) 0 mm0 mm 1019.8 hPa
05:42 17.5 °C 12 °C 70 % 28 km/h (37 km/h) 0 mm0 mm 1019.8 hPa
05:36 17.5 °C 12 °C 70 % 29 km/h (38 km/h) 0 mm0 mm 1019.7 hPa
05:30 17.4 °C 11.9 °C 70 % 27 km/h (36 km/h) 0 mm0 mm 1019.7 hPa
05:24 17.5 °C 12 °C 70 % 28 km/h (41 km/h) 0 mm0 mm 1019.7 hPa
05:18 17.5 °C 11.7 °C 69 % 32 km/h (41 km/h) 0 mm0 mm 1019.7 hPa
05:12 17.4 °C 11.9 °C 70 % 30 km/h (40 km/h) 0 mm0 mm 1019.6 hPa
05:06 17.5 °C 12 °C 70 % 27 km/h (39 km/h) 0 mm0 mm 1019.6 hPa
05:00 17.5 °C 11.7 °C 69 % 28 km/h (39 km/h) 0 mm0 mm 1019.5 hPa
04:54 17.6 °C 12.1 °C 70 % 28 km/h (41 km/h) 0 mm0 mm 1019.5 hPa
04:48 17.5 °C 11.7 °C 69 % 28 km/h (41 km/h) 0 mm0 mm 1019.4 hPa
04:42 17.6 °C 11.8 °C 69 % 28 km/h (36 km/h) 0 mm0 mm 1019.4 hPa
04:36 17.6 °C 11.8 °C 69 % 29 km/h (37 km/h) 0 mm0 mm 1019.3 hPa
04:30 17.5 °C 11.7 °C 69 % 28 km/h (37 km/h) 0 mm0 mm 1019.4 hPa
04:24 17.5 °C 11.7 °C 69 % 27 km/h (37 km/h) 0 mm0 mm 1019.4 hPa
04:18 17.6 °C 11.8 °C 69 % 29 km/h (38 km/h) 0 mm0 mm 1019.3 hPa
04:12 17.6 °C 11.4 °C 67 % 29 km/h (38 km/h) 0 mm0 mm 1019.2 hPa
04:06 17.8 °C 11.8 °C 68 % 29 km/h (38 km/h) 0 mm0 mm 1019.3 hPa
04:00 17.7 °C 11.3 °C 66 % 29 km/h (40 km/h) 0 mm0 mm 1019.2 hPa
03:54 17.7 °C 11.3 °C 66 % 27 km/h (40 km/h) 0 mm0 mm 1019.2 hPa
03:48 17.7 °C 11.3 °C 66 % 28 km/h (37 km/h) 0 mm0 mm 1019.2 hPa
03:42 17.7 °C 11.5 °C 67 % 28 km/h (37 km/h) 0 mm0 mm 1019.1 hPa
03:36 17.7 °C 11.9 °C 69 % 27 km/h (35 km/h) 0 mm0 mm 1019.1 hPa
03:30 17.7 °C 12.2 °C 70 % 26 km/h (35 km/h) 0 mm0 mm 1019.1 hPa
03:24 17.7 °C 12.4 °C 71 % 25 km/h (34 km/h) 0 mm0 mm 1019 hPa
03:18 17.8 °C 12 °C 69 % 27 km/h (35 km/h) 0 mm0 mm 1018.9 hPa
03:12 17.8 °C 11.8 °C 68 % 26 km/h (35 km/h) 0 mm0 mm 1019 hPa
03:06 17.8 °C 12.3 °C 70 % 24 km/h (34 km/h) 0 mm0 mm 1019 hPa
03:00 17.8 °C 12.5 °C 71 % 26 km/h (38 km/h) 0 mm0 mm 1019 hPa
02:54 17.7 °C 11.9 °C 69 % 27 km/h (36 km/h) 0 mm0 mm 1019 hPa
02:48 17.8 °C 12 °C 69 % 28 km/h (36 km/h) 0 mm0 mm 1019 hPa
02:42 17.9 °C 12.3 °C 70 % 28 km/h (39 km/h) 0 mm0 mm 1019 hPa
02:36 17.9 °C 11.7 °C 67 % 30 km/h (39 km/h) 0 mm0 mm 1019 hPa
02:30 17.9 °C 11.9 °C 68 % 30 km/h (39 km/h) 0 mm0 mm 1019 hPa
02:24 17.9 °C 12.3 °C 70 % 30 km/h (37 km/h) 0 mm0 mm 1019 hPa
02:18 18 °C 12.2 °C 69 % 30 km/h (37 km/h) 0 mm0 mm 1018.9 hPa
02:12 18.1 °C 12.1 °C 68 % 29 km/h (37 km/h) 0 mm0 mm 1018.8 hPa
02:06 18.1 °C 12.3 °C 69 % 30 km/h (37 km/h) 0 mm0 mm 1018.7 hPa
02:00 18.1 °C 11.9 °C 67 % 28 km/h (39 km/h) 0 mm0 mm 1018.8 hPa
01:54 18.2 °C 12.2 °C 68 % 26 km/h (35 km/h) 0 mm0 mm 1018.7 hPa
01:48 18.3 °C 12.1 °C 67 % 27 km/h (35 km/h) 0 mm0 mm 1018.7 hPa
01:42 18.2 °C 11.7 °C 66 % 28 km/h (36 km/h) 0 mm0 mm 1018.6 hPa
01:36 18.4 °C 11.9 °C 66 % 27 km/h (36 km/h) 0 mm0 mm 1018.5 hPa
01:30 18.4 °C 11.9 °C 66 % 28 km/h (39 km/h) 0 mm0 mm 1018.4 hPa
01:24 18.4 °C 11.7 °C 65 % 30 km/h (39 km/h) 0 mm0 mm 1018.4 hPa
01:18 18.4 °C 11.7 °C 65 % 28 km/h (39 km/h) 0 mm0 mm 1018.5 hPa
01:12 18.5 °C 11.6 °C 64 % 27 km/h (40 km/h) 0 mm0 mm 1018.5 hPa
01:06 18.7 °C 12.2 °C 66 % 28 km/h (40 km/h) 0 mm0 mm 1018.5 hPa
01:00 18.7 °C 11.7 °C 64 % 28 km/h (39 km/h) 0 mm0 mm 1018.5 hPa
00:54 18.7 °C 12 °C 65 % 28 km/h (39 km/h) 0 mm0 mm 1018.5 hPa
00:48 18.7 °C 12 °C 65 % 29 km/h (38 km/h) 0 mm0 mm 1018.5 hPa
00:42 18.8 °C 12.1 °C 65 % 30 km/h (39 km/h) 0 mm0 mm 1018.5 hPa
00:36 18.7 °C 11.3 °C 62 % 30 km/h (40 km/h) 0 mm0 mm 1018.3 hPa
00:30 18.7 °C 11.5 °C 63 % 31 km/h (40 km/h) 0 mm0 mm 1018.2 hPa
00:24 18.8 °C 11.8 °C 64 % 30 km/h (40 km/h) 0 mm0 mm 1018.2 hPa
00:18 18.9 °C 12.2 °C 65 % 30 km/h (40 km/h) 0 mm0 mm 1018.2 hPa
00:12 18.9 °C 11.9 °C 64 % 30 km/h (40 km/h) 0 mm0 mm 1018.2 hPa
00:06 18.9 °C 11.9 °C 64 % 30 km/h (41 km/h) 0 mm0 mm 1018.1 hPa
00:00 18.9 °C 12.4 °C 66 % 29 km/h (39 km/h) 0 mm0 mm 1018.1 hPa

Données via Météo-France

Relevés météo à Dunkerque

Cette page rassemble les observations de la station de Dunkerque : température, humidité, vent, précipitations et pression atmosphérique. Les graphiques facilitent le suivi de la journée, tandis que le tableau donne accès aux mesures horaires et infra-horaires disponibles.

Pour replacer ces mesures dans leur contexte, consultez la climatologie de Dunkerque ainsi que ses normales et records. Retrouvez aussi la carte des observations météo en temps réel.